Поддержите существование этого сайта

Декодер МЕТАР, все просто и интуитивно понятно.
→ Размер: 889 KB
→ Дата: 5 лет назад (18.07.2013 00:27)
→ Автор: НЕЙЗВЕСТНО
→ Прислал: Abzal (прислал 26 файлов )
→ Разрешил модератор: Aleks_Balagur
→ Лицензия: Freeware - Бесплатная версия, распространение не ограничено
→ Скачан: 1337 раз
+1
 5 
За труды - 5, а за пропаганду лени - 2!))) paavo, 5 лет назад, #
METAR ZMUB 260200Z 18009MPS 160V220 9999 BKN100 07/M09 Q1015
NOSIG RMK QFE654.3 30 MOP=
~Аноним~, 3 недели назад, #
OAHR 010442Z 10010KT 5000 -SHRA FEW008 BKN020 OVC060 07/07 Q1006 ~Аноним~, 2 месяца назад, #
SPECI UNBG 030051Z 23001MPS 1500 BR NSC M23/M25 Q1036 R20/CLRD60 NOSIG RMK QFE750= ~Аноним~, 4 месяца назад, #
METAR UTO8 222134Z CALM 0000 00/00 Q0034 NOSIG ~Аноним~, 6 месяцев назад, #
Q1040 R23L/490150 NOSIG RMK QFE771= − ~Аноним~, 9 месяцев назад, # ~Аноним~, 7 месяцев назад, #
UAAA 071400Z 21002MPS 9999 BKN026CB OVC100 10/08 Q1032 R05R/2/0250 NOSIG ~Аноним~, 7 месяцев назад, #
TAF URSS 091055Z 0912/1012 28006G11MPS 9999 SCT030CB BKN100
TEMPO 0912/0916 -TSRA
BECMG 0916/0918 05006MPS
TEMPO 0916/1006 -TSRA
BECMG 1006/1007 16005G10MPS BKN030CB OVC100
TEMPO 1006/1012 -TSRA
~Аноним~, 8 месяцев назад, #
TAF UEEE 122300Z 1300/1406 VRB01MPS 0300 FG VV002 TXM39/1305Z
TNM43/1224Z TEMPO 1303/1312 1500 BR NSC=
METAR UEEE 122300Z 02001MPS 0600 0500NE R23L/1400N FG NSC M43/M47
Q1040 R23L/490150 NOSIG RMK QFE771=
~Аноним~, 1 год назад, #
UWKD 132030z 31004MPS 5000 BR OVC004 04/04 Q1014 R29/2/0050 TEMPO 0700 FG RMK QFE750/1000= ~Аноним~, 1 год назад, #
UWGG 061050Z 0612/0712 10006G13MPS 4000 -SHRA BKN011 BKN015CB TX13/0613Z TN10/0703Z BECMG 0617/0619 12003MPS ~Аноним~, 1 год назад, #
METAR UNWW 161400Z 31004MPS CAVOK 16/10 Q1016 R19/09//60 NOSIG
RMK QFE735=
~Аноним~, 1 год назад, #
SPECI LTBA 271534Z 34017KT 6000 -TSRA FEW020CB BKN035 21/20
Q1002 BECMG TL1600 NSW RMK RWY17L /////KT RWY05
33018KT RWY23 34016KT 310V020=
~Аноним~, 1 год назад, #
 5 
http://www.metarreader.com/
Почти то же самое только легче читается.
spiritizm, 4 года назад, #
 5 
спасибо denis77, 4 года назад, #
 5 
Спасибо! Отличная программа! Очень удобна для проверки самого себя (всё-таки нужно уметь самостоятельно расшифровывать METAR). Я вот не очень хорошо наизусть помню тип осадков на полосе. Взлетный, 4 года назад, #
 5 
Отличная прога! Спасибо!!! Rage, 5 лет назад, #
 5 
Вот спасибо! так наглядно всё, может теперь научусь декодировать без шпаргалки самостоятельно. UEMJ, 5 лет назад, #
Сходу заработал (пока правда без сима проверял) А ещё и часовые пояса кажет графически (с отображением текущих зон дня и ночи) и, соответственно показывает местное и UTC. Ну и фазу Луны только сию в правом-нижнем уголке заметил. UEMJ, 5 лет назад, #
 5 
Клёвая прога! спасибо! bassman1978, 5 лет назад, #
 5 
Он бы ещё сам данные МЕТАР искал по коду порта))) ReVeR, 5 лет назад, #
эта функция реализована) Abzal, 5 лет назад, #
кликните по "глобусу" вверху Abzal, 5 лет назад, #
Но, к сожалению, не соединяется ни с одним сервером. ReVeR, 5 лет назад, #
забил UWUU всё работает! bassman1978, 5 лет назад, #
Все прекрасно работает, и рабочую полосу покажет) Abzal, 5 лет назад, #
-4
Искривляем извилины выпрямляем руки) Abzal, 5 лет назад, #

Чтобы получить возможность оставления комментариев, пожалуйста сначала авторизуйтесь на сайте.